sensor_id;sensor_type;location;lat;lon;timestamp;temperature;humidity
17154;DHT22;8692;52.164;7.558;2023-03-11T00:01:35;1.20;99.90
17154;DHT22;8692;52.164;7.558;2023-03-11T00:04:10;1.20;99.90
17154;DHT22;8692;52.164;7.558;2023-03-11T00:06:41;1.20;99.90
17154;DHT22;8692;52.164;7.558;2023-03-11T00:09:11;1.20;99.90
17154;DHT22;8692;52.164;7.558;2023-03-11T00:11:46;1.20;99.90
17154;DHT22;8692;52.164;7.558;2023-03-11T00:14:19;1.20;99.90
17154;DHT22;8692;52.164;7.558;2023-03-11T00:16:52;1.20;99.90
17154;DHT22;8692;52.164;7.558;2023-03-11T00:19:22;1.20;99.90
17154;DHT22;8692;52.164;7.558;2023-03-11T00:21:55;1.20;99.90
17154;DHT22;8692;52.164;7.558;2023-03-11T00:24:27;1.20;99.90
17154;DHT22;8692;52.164;7.558;2023-03-11T00:27:00;1.10;99.90
17154;DHT22;8692;52.164;7.558;2023-03-11T00:29:33;1.20;99.90
17154;DHT22;8692;52.164;7.558;2023-03-11T00:32:05;1.10;99.90
17154;DHT22;8692;52.164;7.558;2023-03-11T00:34:36;1.10;99.90
17154;DHT22;8692;52.164;7.558;2023-03-11T00:37:12;1.10;99.90
17154;DHT22;8692;52.164;7.558;2023-03-11T00:39:44;1.10;99.90
17154;DHT22;8692;52.164;7.558;2023-03-11T00:42:15;1.10;99.90
17154;DHT22;8692;52.164;7.558;2023-03-11T00:44:48;1.10;99.90
17154;DHT22;8692;52.164;7.558;2023-03-11T00:47:21;1.20;99.90
17154;DHT22;8692;52.164;7.558;2023-03-11T00:49:58;1.10;99.90
17154;DHT22;8692;52.164;7.558;2023-03-11T00:52:27;1.20;99.90
17154;DHT22;8692;52.164;7.558;2023-03-11T00:55:01;1.10;99.90
17154;DHT22;8692;52.164;7.558;2023-03-11T00:57:33;1.20;99.90
17154;DHT22;8692;52.164;7.558;2023-03-11T01:00:01;1.20;99.90
17154;DHT22;8692;52.164;7.558;2023-03-11T01:02:35;1.20;99.90
17154;DHT22;8692;52.164;7.558;2023-03-11T01:05:04;1.10;99.90
17154;DHT22;8692;52.164;7.558;2023-03-11T01:07:33;1.10;99.90
17154;DHT22;8692;52.164;7.558;2023-03-11T01:10:04;1.20;99.90
17154;DHT22;8692;52.164;7.558;2023-03-11T01:12:32;1.20;99.90
17154;DHT22;8692;52.164;7.558;2023-03-11T01:15:05;1.20;99.90
17154;DHT22;8692;52.164;7.558;2023-03-11T01:17:37;1.20;99.90
17154;DHT22;8692;52.164;7.558;2023-03-11T01:20:06;1.20;99.90
17154;DHT22;8692;52.164;7.558;2023-03-11T01:22:36;1.20;99.90
17154;DHT22;8692;52.164;7.558;2023-03-11T01:25:08;1.20;99.90
17154;DHT22;8692;52.164;7.558;2023-03-11T01:27:37;1.20;99.90
17154;DHT22;8692;52.164;7.558;2023-03-11T01:30:09;1.10;99.90
17154;DHT22;8692;52.164;7.558;2023-03-11T01:32:41;1.10;99.90
17154;DHT22;8692;52.164;7.558;2023-03-11T01:35:11;1.10;99.90
17154;DHT22;8692;52.164;7.558;2023-03-11T01:37:42;1.10;99.90
17154;DHT22;8692;52.164;7.558;2023-03-11T01:40:16;1.10;99.90
17154;DHT22;8692;52.164;7.558;2023-03-11T01:42:45;1.10;99.90
17154;DHT22;8692;52.164;7.558;2023-03-11T01:45:30;1.10;99.90
17154;DHT22;8692;52.164;7.558;2023-03-11T01:48:02;1.10;99.90
17154;DHT22;8692;52.164;7.558;2023-03-11T01:50:35;1.10;99.90
17154;DHT22;8692;52.164;7.558;2023-03-11T01:53:05;1.10;99.90
17154;DHT22;8692;52.164;7.558;2023-03-11T01:55:34;1.10;99.90
17154;DHT22;8692;52.164;7.558;2023-03-11T01:58:07;1.10;99.90
17154;DHT22;8692;52.164;7.558;2023-03-11T02:00:36;1.10;99.90
17154;DHT22;8692;52.164;7.558;2023-03-11T02:03:10;1.10;99.90
17154;DHT22;8692;52.164;7.558;2023-03-11T02:05:41;1.10;99.90
17154;DHT22;8692;52.164;7.558;2023-03-11T02:08:10;1.10;99.90
17154;DHT22;8692;52.164;7.558;2023-03-11T02:10:41;1.10;99.90
17154;DHT22;8692;52.164;7.558;2023-03-11T02:13:11;1.10;99.90
17154;DHT22;8692;52.164;7.558;2023-03-11T02:15:39;1.10;99.90
17154;DHT22;8692;52.164;7.558;2023-03-11T02:18:13;1.00;99.90
17154;DHT22;8692;52.164;7.558;2023-03-11T02:20:48;1.00;99.90
17154;DHT22;8692;52.164;7.558;2023-03-11T02:23:19;1.00;99.90
17154;DHT22;8692;52.164;7.558;2023-03-11T02:25:55;1.10;99.90
17154;DHT22;8692;52.164;7.558;2023-03-11T02:28:27;1.10;99.90
17154;DHT22;8692;52.164;7.558;2023-03-11T02:30:58;1.10;99.90
17154;DHT22;8692;52.164;7.558;2023-03-11T02:33:28;1.10;99.90
17154;DHT22;8692;52.164;7.558;2023-03-11T02:35:58;1.10;99.90
17154;DHT22;8692;52.164;7.558;2023-03-11T02:38:26;1.10;99.90
17154;DHT22;8692;52.164;7.558;2023-03-11T02:40:55;1.10;99.90
17154;DHT22;8692;52.164;7.558;2023-03-11T02:43:32;1.00;99.90
17154;DHT22;8692;52.164;7.558;2023-03-11T02:46:04;1.00;99.90
17154;DHT22;8692;52.164;7.558;2023-03-11T02:48:35;1.00;99.90
17154;DHT22;8692;52.164;7.558;2023-03-11T02:51:06;1.00;99.90
17154;DHT22;8692;52.164;7.558;2023-03-11T02:53:40;1.00;99.90
17154;DHT22;8692;52.164;7.558;2023-03-11T02:56:12;1.00;99.90
17154;DHT22;8692;52.164;7.558;2023-03-11T02:58:43;1.00;99.90
17154;DHT22;8692;52.164;7.558;2023-03-11T03:01:14;1.00;99.90
17154;DHT22;8692;52.164;7.558;2023-03-11T03:03:45;1.00;99.90
17154;DHT22;8692;52.164;7.558;2023-03-11T03:06:16;1.00;99.90
17154;DHT22;8692;52.164;7.558;2023-03-11T03:08:44;1.00;99.90
17154;DHT22;8692;52.164;7.558;2023-03-11T03:11:15;1.00;99.90
17154;DHT22;8692;52.164;7.558;2023-03-11T03:13:47;1.00;99.90
17154;DHT22;8692;52.164;7.558;2023-03-11T03:16:17;1.00;99.90
17154;DHT22;8692;52.164;7.558;2023-03-11T03:18:47;0.90;99.90
17154;DHT22;8692;52.164;7.558;2023-03-11T03:21:16;0.90;99.90
17154;DHT22;8692;52.164;7.558;2023-03-11T03:23:44;0.90;99.90
17154;DHT22;8692;52.164;7.558;2023-03-11T03:26:13;0.90;99.90
17154;DHT22;8692;52.164;7.558;2023-03-11T03:28:43;0.90;99.90
17154;DHT22;8692;52.164;7.558;2023-03-11T03:31:13;0.90;99.90
17154;DHT22;8692;52.164;7.558;2023-03-11T03:33:43;0.90;99.90
17154;DHT22;8692;52.164;7.558;2023-03-11T03:36:12;0.90;99.90
17154;DHT22;8692;52.164;7.558;2023-03-11T03:38:44;0.90;99.90
17154;DHT22;8692;52.164;7.558;2023-03-11T03:41:15;0.90;99.90
17154;DHT22;8692;52.164;7.558;2023-03-11T03:43:44;0.90;99.90
17154;DHT22;8692;52.164;7.558;2023-03-11T03:46:16;0.90;99.90
17154;DHT22;8692;52.164;7.558;2023-03-11T03:48:47;0.90;99.90
17154;DHT22;8692;52.164;7.558;2023-03-11T03:51:17;0.90;99.90
17154;DHT22;8692;52.164;7.558;2023-03-11T03:53:58;0.90;99.90
17154;DHT22;8692;52.164;7.558;2023-03-11T03:56:29;0.90;99.90
17154;DHT22;8692;52.164;7.558;2023-03-11T03:58:58;0.90;99.90
17154;DHT22;8692;52.164;7.558;2023-03-11T04:01:34;0.90;99.90
17154;DHT22;8692;52.164;7.558;2023-03-11T04:04:03;0.90;99.90
17154;DHT22;8692;52.164;7.558;2023-03-11T04:06:31;0.80;99.90
17154;DHT22;8692;52.164;7.558;2023-03-11T04:09:03;0.90;99.90
17154;DHT22;8692;52.164;7.558;2023-03-11T04:11:34;0.80;99.90
17154;DHT22;8692;52.164;7.558;2023-03-11T04:14:05;0.90;99.90
17154;DHT22;8692;52.164;7.558;2023-03-11T04:16:39;0.90;99.90
17154;DHT22;8692;52.164;7.558;2023-03-11T04:19:11;0.90;99.90
17154;DHT22;8692;52.164;7.558;2023-03-11T04:21:39;0.90;99.90
17154;DHT22;8692;52.164;7.558;2023-03-11T04:24:08;0.90;99.90
17154;DHT22;8692;52.164;7.558;2023-03-11T04:26:38;0.80;99.90
17154;DHT22;8692;52.164;7.558;2023-03-11T04:29:10;0.90;99.90
17154;DHT22;8692;52.164;7.558;2023-03-11T04:31:44;0.90;99.90
17154;DHT22;8692;52.164;7.558;2023-03-11T04:34:12;0.80;99.90
17154;DHT22;8692;52.164;7.558;2023-03-11T04:36:43;0.80;99.90
17154;DHT22;8692;52.164;7.558;2023-03-11T04:39:14;0.80;99.90
17154;DHT22;8692;52.164;7.558;2023-03-11T04:41:44;0.90;99.90
17154;DHT22;8692;52.164;7.558;2023-03-11T04:44:17;0.90;99.90
17154;DHT22;8692;52.164;7.558;2023-03-11T04:46:47;0.80;99.90
17154;DHT22;8692;52.164;7.558;2023-03-11T04:49:17;0.80;99.90
17154;DHT22;8692;52.164;7.558;2023-03-11T04:51:46;0.80;99.90
17154;DHT22;8692;52.164;7.558;2023-03-11T04:54:19;0.80;99.90
17154;DHT22;8692;52.164;7.558;2023-03-11T04:56:47;0.80;99.90
17154;DHT22;8692;52.164;7.558;2023-03-11T04:59:15;0.80;99.90
17154;DHT22;8692;52.164;7.558;2023-03-11T05:01:48;0.80;99.90
17154;DHT22;8692;52.164;7.558;2023-03-11T05:04:19;0.80;99.90
17154;DHT22;8692;52.164;7.558;2023-03-11T05:06:47;0.70;99.90
17154;DHT22;8692;52.164;7.558;2023-03-11T05:09:18;0.70;99.90
17154;DHT22;8692;52.164;7.558;2023-03-11T05:11:46;0.70;99.90
17154;DHT22;8692;52.164;7.558;2023-03-11T05:14:17;0.70;99.90
17154;DHT22;8692;52.164;7.558;2023-03-11T05:16:50;0.70;99.90
17154;DHT22;8692;52.164;7.558;2023-03-11T05:19:18;0.70;99.90
17154;DHT22;8692;52.164;7.558;2023-03-11T05:22:07;0.60;99.90
17154;DHT22;8692;52.164;7.558;2023-03-11T05:24:37;0.60;99.90
17154;DHT22;8692;52.164;7.558;2023-03-11T05:27:06;0.60;99.90
17154;DHT22;8692;52.164;7.558;2023-03-11T05:29:36;0.60;99.90
17154;DHT22;8692;52.164;7.558;2023-03-11T05:32:10;0.60;99.90
17154;DHT22;8692;52.164;7.558;2023-03-11T05:34:39;0.60;99.90
17154;DHT22;8692;52.164;7.558;2023-03-11T05:37:08;0.60;99.90
17154;DHT22;8692;52.164;7.558;2023-03-11T05:39:36;0.50;99.90
17154;DHT22;8692;52.164;7.558;2023-03-11T05:42:05;0.60;99.90
17154;DHT22;8692;52.164;7.558;2023-03-11T05:44:34;0.50;99.90
17154;DHT22;8692;52.164;7.558;2023-03-11T05:47:03;0.50;99.90
17154;DHT22;8692;52.164;7.558;2023-03-11T05:49:33;0.50;99.90
17154;DHT22;8692;52.164;7.558;2023-03-11T05:52:04;0.50;99.90
17154;DHT22;8692;52.164;7.558;2023-03-11T05:54:33;0.50;99.90
17154;DHT22;8692;52.164;7.558;2023-03-11T05:57:02;0.50;99.90
17154;DHT22;8692;52.164;7.558;2023-03-11T05:59:32;0.40;99.90
17154;DHT22;8692;52.164;7.558;2023-03-11T06:02:03;0.40;99.90
17154;DHT22;8692;52.164;7.558;2023-03-11T06:04:35;0.40;99.90
17154;DHT22;8692;52.164;7.558;2023-03-11T06:07:04;0.40;99.90
17154;DHT22;8692;52.164;7.558;2023-03-11T06:09:36;0.40;99.90
17154;DHT22;8692;52.164;7.558;2023-03-11T06:12:09;0.30;99.90
17154;DHT22;8692;52.164;7.558;2023-03-11T06:14:49;0.30;99.90
17154;DHT22;8692;52.164;7.558;2023-03-11T06:17:19;0.30;99.90
17154;DHT22;8692;52.164;7.558;2023-03-11T06:19:51;0.30;99.90
17154;DHT22;8692;52.164;7.558;2023-03-11T06:22:22;0.30;99.90
17154;DHT22;8692;52.164;7.558;2023-03-11T06:24:50;0.30;99.90
17154;DHT22;8692;52.164;7.558;2023-03-11T06:27:18;0.30;99.90
17154;DHT22;8692;52.164;7.558;2023-03-11T06:29:51;0.30;99.90
17154;DHT22;8692;52.164;7.558;2023-03-11T06:32:22;0.30;99.90
17154;DHT22;8692;52.164;7.558;2023-03-11T06:34:52;0.30;99.90
17154;DHT22;8692;52.164;7.558;2023-03-11T06:37:23;0.30;99.90
17154;DHT22;8692;52.164;7.558;2023-03-11T06:39:51;0.30;99.90
17154;DHT22;8692;52.164;7.558;2023-03-11T06:42:22;0.30;99.90
17154;DHT22;8692;52.164;7.558;2023-03-11T06:44:55;0.30;99.90
17154;DHT22;8692;52.164;7.558;2023-03-11T06:47:24;0.30;99.90
17154;DHT22;8692;52.164;7.558;2023-03-11T06:49:55;0.40;99.90
17154;DHT22;8692;52.164;7.558;2023-03-11T06:52:26;0.30;99.90
17154;DHT22;8692;52.164;7.558;2023-03-11T06:54:56;0.40;99.90
17154;DHT22;8692;52.164;7.558;2023-03-11T06:57:26;0.40;99.90
17154;DHT22;8692;52.164;7.558;2023-03-11T07:00:00;0.40;99.90
17154;DHT22;8692;52.164;7.558;2023-03-11T07:02:29;0.40;99.90
17154;DHT22;8692;52.164;7.558;2023-03-11T07:04:58;0.40;99.90
17154;DHT22;8692;52.164;7.558;2023-03-11T07:07:29;0.40;99.90
17154;DHT22;8692;52.164;7.558;2023-03-11T07:09:59;0.40;99.90
17154;DHT22;8692;52.164;7.558;2023-03-11T07:12:27;0.40;99.90
17154;DHT22;8692;52.164;7.558;2023-03-11T07:14:56;0.40;99.90
17154;DHT22;8692;52.164;7.558;2023-03-11T07:17:28;0.40;99.90
17154;DHT22;8692;52.164;7.558;2023-03-11T07:19:58;0.40;99.90
17154;DHT22;8692;52.164;7.558;2023-03-11T07:22:26;0.40;99.90
17154;DHT22;8692;52.164;7.558;2023-03-11T07:24:54;0.40;99.90
17154;DHT22;8692;52.164;7.558;2023-03-11T07:27:22;0.50;99.90
17154;DHT22;8692;52.164;7.558;2023-03-11T07:29:51;0.50;99.90
17154;DHT22;8692;52.164;7.558;2023-03-11T07:32:21;0.60;99.90
17154;DHT22;8692;52.164;7.558;2023-03-11T07:34:52;0.60;99.90
17154;DHT22;8692;52.164;7.558;2023-03-11T07:37:23;0.60;99.90
17154;DHT22;8692;52.164;7.558;2023-03-11T07:39:52;0.60;99.90
17154;DHT22;8692;52.164;7.558;2023-03-11T07:42:20;0.70;99.90
17154;DHT22;8692;52.164;7.558;2023-03-11T07:44:49;0.70;99.90
17154;DHT22;8692;52.164;7.558;2023-03-11T07:47:18;0.80;99.90
17154;DHT22;8692;52.164;7.558;2023-03-11T07:49:46;0.80;99.90
17154;DHT22;8692;52.164;7.558;2023-03-11T07:52:17;0.90;99.90
17154;DHT22;8692;52.164;7.558;2023-03-11T07:54:47;0.90;99.90
17154;DHT22;8692;52.164;7.558;2023-03-11T07:57:17;1.00;99.90
17154;DHT22;8692;52.164;7.558;2023-03-11T07:59:45;1.00;99.90
17154;DHT22;8692;52.164;7.558;2023-03-11T08:02:14;1.00;99.90
17154;DHT22;8692;52.164;7.558;2023-03-11T08:04:45;1.10;99.90
17154;DHT22;8692;52.164;7.558;2023-03-11T08:07:13;1.10;99.90
17154;DHT22;8692;52.164;7.558;2023-03-11T08:09:41;1.20;99.90
17154;DHT22;8692;52.164;7.558;2023-03-11T08:12:11;1.20;99.90
17154;DHT22;8692;52.164;7.558;2023-03-11T08:14:42;1.20;99.90
17154;DHT22;8692;52.164;7.558;2023-03-11T08:17:10;1.20;99.90
17154;DHT22;8692;52.164;7.558;2023-03-11T08:19:40;1.20;99.90
17154;DHT22;8692;52.164;7.558;2023-03-11T08:22:08;1.20;99.90
17154;DHT22;8692;52.164;7.558;2023-03-11T08:24:37;1.30;99.90
17154;DHT22;8692;52.164;7.558;2023-03-11T08:27:05;1.30;99.90
17154;DHT22;8692;52.164;7.558;2023-03-11T08:29:34;1.40;99.90
17154;DHT22;8692;52.164;7.558;2023-03-11T08:32:03;1.40;99.90
17154;DHT22;8692;52.164;7.558;2023-03-11T08:34:31;1.40;99.90
17154;DHT22;8692;52.164;7.558;2023-03-11T08:37:01;1.50;99.90
17154;DHT22;8692;52.164;7.558;2023-03-11T08:39:29;1.50;99.90
17154;DHT22;8692;52.164;7.558;2023-03-11T08:41:57;1.50;99.90
17154;DHT22;8692;52.164;7.558;2023-03-11T08:44:26;1.60;99.90
17154;DHT22;8692;52.164;7.558;2023-03-11T08:46:55;1.60;99.90
17154;DHT22;8692;52.164;7.558;2023-03-11T08:49:24;1.60;99.90
17154;DHT22;8692;52.164;7.558;2023-03-11T08:51:52;1.70;99.90
17154;DHT22;8692;52.164;7.558;2023-03-11T08:54:20;1.70;99.90
17154;DHT22;8692;52.164;7.558;2023-03-11T08:56:48;1.80;99.90
17154;DHT22;8692;52.164;7.558;2023-03-11T08:59:19;1.80;99.90
17154;DHT22;8692;52.164;7.558;2023-03-11T09:01:50;1.80;99.90
17154;DHT22;8692;52.164;7.558;2023-03-11T09:04:21;1.90;99.90
17154;DHT22;8692;52.164;7.558;2023-03-11T09:06:49;2.00;99.90
17154;DHT22;8692;52.164;7.558;2023-03-11T09:09:18;2.00;99.90
17154;DHT22;8692;52.164;7.558;2023-03-11T09:11:46;2.10;99.90
17154;DHT22;8692;52.164;7.558;2023-03-11T09:14:15;2.10;99.90
17154;DHT22;8692;52.164;7.558;2023-03-11T09:16:45;2.20;99.90
17154;DHT22;8692;52.164;7.558;2023-03-11T09:19:13;2.20;99.90
17154;DHT22;8692;52.164;7.558;2023-03-11T09:21:43;2.20;99.90
17154;DHT22;8692;52.164;7.558;2023-03-11T09:24:11;2.30;99.90
17154;DHT22;8692;52.164;7.558;2023-03-11T09:26:39;2.30;99.90
17154;DHT22;8692;52.164;7.558;2023-03-11T09:29:07;2.40;99.90
17154;DHT22;8692;52.164;7.558;2023-03-11T09:31:35;2.40;99.90
17154;DHT22;8692;52.164;7.558;2023-03-11T09:34:05;2.40;99.90
17154;DHT22;8692;52.164;7.558;2023-03-11T09:36:33;2.30;99.90
17154;DHT22;8692;52.164;7.558;2023-03-11T09:39:05;2.40;99.90
17154;DHT22;8692;52.164;7.558;2023-03-11T09:41:41;2.40;99.90
17154;DHT22;8692;52.164;7.558;2023-03-11T09:44:27;2.30;99.90
17154;DHT22;8692;52.164;7.558;2023-03-11T09:50:21;2.40;99.90
17154;DHT22;8692;52.164;7.558;2023-03-11T09:52:57;2.40;99.90
17154;DHT22;8692;52.164;7.558;2023-03-11T09:55:33;2.50;99.90
17154;DHT22;8692;52.164;7.558;2023-03-11T09:58:10;2.60;99.90
17154;DHT22;8692;52.164;7.558;2023-03-11T10:00:39;2.50;99.90
17154;DHT22;8692;52.164;7.558;2023-03-11T10:03:19;2.70;99.90
17154;DHT22;8692;52.164;7.558;2023-03-11T10:05:50;2.70;99.90
17154;DHT22;8692;52.164;7.558;2023-03-11T10:08:23;2.80;99.90
17154;DHT22;8692;52.164;7.558;2023-03-11T10:11:00;2.90;99.90
17154;DHT22;8692;52.164;7.558;2023-03-11T10:13:39;2.90;99.90
17154;DHT22;8692;52.164;7.558;2023-03-11T10:16:17;2.90;99.90
17154;DHT22;8692;52.164;7.558;2023-03-11T10:18:53;3.00;99.90
17154;DHT22;8692;52.164;7.558;2023-03-11T10:21:36;3.10;99.90
17154;DHT22;8692;52.164;7.558;2023-03-11T10:24:18;3.20;99.90
17154;DHT22;8692;52.164;7.558;2023-03-11T10:26:55;3.30;99.90
17154;DHT22;8692;52.164;7.558;2023-03-11T10:29:29;3.30;99.90
17154;DHT22;8692;52.164;7.558;2023-03-11T10:32:01;3.40;99.90
17154;DHT22;8692;52.164;7.558;2023-03-11T10:34:34;3.40;99.90
17154;DHT22;8692;52.164;7.558;2023-03-11T10:37:10;3.50;99.90
17154;DHT22;8692;52.164;7.558;2023-03-11T10:39:40;3.60;99.90
17154;DHT22;8692;52.164;7.558;2023-03-11T10:42:13;3.60;99.90
17154;DHT22;8692;52.164;7.558;2023-03-11T10:44:43;3.60;99.90
17154;DHT22;8692;52.164;7.558;2023-03-11T10:47:16;3.60;99.90
17154;DHT22;8692;52.164;7.558;2023-03-11T10:49:45;3.60;99.90
17154;DHT22;8692;52.164;7.558;2023-03-11T10:52:13;3.50;99.90
17154;DHT22;8692;52.164;7.558;2023-03-11T10:54:46;3.50;99.90
17154;DHT22;8692;52.164;7.558;2023-03-11T10:57:24;3.60;99.90
17154;DHT22;8692;52.164;7.558;2023-03-11T10:59:54;3.60;99.90
17154;DHT22;8692;52.164;7.558;2023-03-11T11:02:27;3.70;99.90
17154;DHT22;8692;52.164;7.558;2023-03-11T11:05:06;3.80;99.90
17154;DHT22;8692;52.164;7.558;2023-03-11T11:07:36;3.80;99.90
17154;DHT22;8692;52.164;7.558;2023-03-11T11:10:18;3.90;99.90
17154;DHT22;8692;52.164;7.558;2023-03-11T11:12:54;3.90;99.90
17154;DHT22;8692;52.164;7.558;2023-03-11T11:15:24;3.90;99.90
17154;DHT22;8692;52.164;7.558;2023-03-11T11:17:56;4.00;99.90
17154;DHT22;8692;52.164;7.558;2023-03-11T11:20:26;3.90;99.90
17154;DHT22;8692;52.164;7.558;2023-03-11T11:22:59;3.80;99.90
17154;DHT22;8692;52.164;7.558;2023-03-11T11:25:32;3.80;99.90
17154;DHT22;8692;52.164;7.558;2023-03-11T11:28:14;3.90;99.90
17154;DHT22;8692;52.164;7.558;2023-03-11T11:30:51;3.90;99.90
17154;DHT22;8692;52.164;7.558;2023-03-11T11:33:22;4.00;99.90
17154;DHT22;8692;52.164;7.558;2023-03-11T11:35:53;4.00;99.90
17154;DHT22;8692;52.164;7.558;2023-03-11T11:38:24;4.10;99.90
17154;DHT22;8692;52.164;7.558;2023-03-11T11:40:55;4.10;99.90
17154;DHT22;8692;52.164;7.558;2023-03-11T11:43:35;4.20;99.90
17154;DHT22;8692;52.164;7.558;2023-03-11T11:46:12;4.20;99.90
17154;DHT22;8692;52.164;7.558;2023-03-11T11:48:51;4.30;99.90
17154;DHT22;8692;52.164;7.558;2023-03-11T11:51:29;4.40;99.90
17154;DHT22;8692;52.164;7.558;2023-03-11T11:54:07;4.40;99.90
17154;DHT22;8692;52.164;7.558;2023-03-11T11:56:39;4.50;99.90
17154;DHT22;8692;52.164;7.558;2023-03-11T11:59:15;4.50;99.90
17154;DHT22;8692;52.164;7.558;2023-03-11T12:01:55;4.60;99.90
17154;DHT22;8692;52.164;7.558;2023-03-11T12:04:45;4.60;99.90
17154;DHT22;8692;52.164;7.558;2023-03-11T12:07:32;4.50;99.90
17154;DHT22;8692;52.164;7.558;2023-03-11T12:10:11;4.60;99.90
17154;DHT22;8692;52.164;7.558;2023-03-11T12:15:56;4.60;99.90
17154;DHT22;8692;52.164;7.558;2023-03-11T12:18:29;4.60;99.90
17154;DHT22;8692;52.164;7.558;2023-03-11T12:20:58;4.60;99.90
17154;DHT22;8692;52.164;7.558;2023-03-11T12:23:34;4.60;99.90
17154;DHT22;8692;52.164;7.558;2023-03-11T12:26:14;4.60;99.90
17154;DHT22;8692;52.164;7.558;2023-03-11T12:28:50;4.60;99.90
17154;DHT22;8692;52.164;7.558;2023-03-11T12:31:22;4.70;99.90
17154;DHT22;8692;52.164;7.558;2023-03-11T12:33:56;4.70;99.90
17154;DHT22;8692;52.164;7.558;2023-03-11T12:36:28;4.80;99.90
17154;DHT22;8692;52.164;7.558;2023-03-11T12:38:59;4.90;99.90
17154;DHT22;8692;52.164;7.558;2023-03-11T12:41:32;4.90;99.90
17154;DHT22;8692;52.164;7.558;2023-03-11T12:44:21;4.90;99.90
17154;DHT22;8692;52.164;7.558;2023-03-11T12:47:15;4.90;99.90
17154;DHT22;8692;52.164;7.558;2023-03-11T12:49:48;4.90;99.90
17154;DHT22;8692;52.164;7.558;2023-03-11T12:52:22;4.90;99.90
17154;DHT22;8692;52.164;7.558;2023-03-11T12:58:27;5.00;99.90
17154;DHT22;8692;52.164;7.558;2023-03-11T13:01:14;5.10;99.90
17154;DHT22;8692;52.164;7.558;2023-03-11T13:03:53;5.20;99.90
17154;DHT22;8692;52.164;7.558;2023-03-11T13:09:34;5.30;99.90
17154;DHT22;8692;52.164;7.558;2023-03-11T13:12:37;5.40;99.90
17154;DHT22;8692;52.164;7.558;2023-03-11T13:15:25;5.30;99.90
17154;DHT22;8692;52.164;7.558;2023-03-11T13:17:57;5.30;99.90
17154;DHT22;8692;52.164;7.558;2023-03-11T13:20:50;5.30;99.90
17154;DHT22;8692;52.164;7.558;2023-03-11T13:23:30;5.40;99.90
17154;DHT22;8692;52.164;7.558;2023-03-11T13:29:30;5.70;99.90
17154;DHT22;8692;52.164;7.558;2023-03-11T13:32:39;5.80;99.90
17154;DHT22;8692;52.164;7.558;2023-03-11T13:35:27;5.70;99.90
17154;DHT22;8692;52.164;7.558;2023-03-11T13:41:14;5.50;99.90
17154;DHT22;8692;52.164;7.558;2023-03-11T13:43:44;5.50;99.90
17154;DHT22;8692;52.164;7.558;2023-03-11T13:46:23;5.70;99.90
17154;DHT22;8692;52.164;7.558;2023-03-11T13:48:59;5.70;99.90
17154;DHT22;8692;52.164;7.558;2023-03-11T13:51:35;5.80;99.90
17154;DHT22;8692;52.164;7.558;2023-03-11T13:54:25;5.90;99.90
17154;DHT22;8692;52.164;7.558;2023-03-11T13:56:57;6.00;99.90
17154;DHT22;8692;52.164;7.558;2023-03-11T13:59:30;6.10;99.90
17154;DHT22;8692;52.164;7.558;2023-03-11T14:01:59;6.20;99.90
17154;DHT22;8692;52.164;7.558;2023-03-11T14:04:31;6.30;99.90
17154;DHT22;8692;52.164;7.558;2023-03-11T14:07:11;6.30;99.90
17154;DHT22;8692;52.164;7.558;2023-03-11T14:09:41;6.30;97.50
17154;DHT22;8692;52.164;7.558;2023-03-11T14:12:10;6.30;99.90
17154;DHT22;8692;52.164;7.558;2023-03-11T14:14:45;6.40;99.90
17154;DHT22;8692;52.164;7.558;2023-03-11T14:17:17;6.50;99.90
17154;DHT22;8692;52.164;7.558;2023-03-11T14:20:10;6.50;99.90
17154;DHT22;8692;52.164;7.558;2023-03-11T14:22:43;6.70;99.90
17154;DHT22;8692;52.164;7.558;2023-03-11T14:25:18;6.70;99.20
17154;DHT22;8692;52.164;7.558;2023-03-11T14:27:50;6.80;99.90
17154;DHT22;8692;52.164;7.558;2023-03-11T14:30:24;6.90;99.90
17154;DHT22;8692;52.164;7.558;2023-03-11T14:32:59;7.00;99.10
17154;DHT22;8692;52.164;7.558;2023-03-11T14:35:29;7.10;98.40
17154;DHT22;8692;52.164;7.558;2023-03-11T14:38:00;7.20;98.50
17154;DHT22;8692;52.164;7.558;2023-03-11T14:40:33;7.20;92.80
17154;DHT22;8692;52.164;7.558;2023-03-11T14:43:05;7.30;93.00
17154;DHT22;8692;52.164;7.558;2023-03-11T14:45:35;7.30;92.90
17154;DHT22;8692;52.164;7.558;2023-03-11T14:48:08;7.30;92.40
17154;DHT22;8692;52.164;7.558;2023-03-11T14:50:39;7.40;92.60
17154;DHT22;8692;52.164;7.558;2023-03-11T14:53:14;7.50;92.50
17154;DHT22;8692;52.164;7.558;2023-03-11T14:55:49;7.40;89.30
17154;DHT22;8692;52.164;7.558;2023-03-11T14:58:22;7.50;91.00
17154;DHT22;8692;52.164;7.558;2023-03-11T15:00:58;7.50;92.60
17154;DHT22;8692;52.164;7.558;2023-03-11T15:03:33;7.60;92.10
17154;DHT22;8692;52.164;7.558;2023-03-11T15:06:05;7.70;92.20
17154;DHT22;8692;52.164;7.558;2023-03-11T15:08:40;7.70;93.80
17154;DHT22;8692;52.164;7.558;2023-03-11T15:11:22;7.70;93.80
17154;DHT22;8692;52.164;7.558;2023-03-11T15:13:55;7.60;92.10
17154;DHT22;8692;52.164;7.558;2023-03-11T15:16:36;7.60;91.40
17154;DHT22;8692;52.164;7.558;2023-03-11T15:19:21;7.60;92.20
17154;DHT22;8692;52.164;7.558;2023-03-11T15:21:50;7.40;90.50
17154;DHT22;8692;52.164;7.558;2023-03-11T15:24:22;7.30;91.30
17154;DHT22;8692;52.164;7.558;2023-03-11T15:27:00;7.30;91.50
17154;DHT22;8692;52.164;7.558;2023-03-11T15:29:32;7.20;90.40
17154;DHT22;8692;52.164;7.558;2023-03-11T15:32:24;7.20;93.80
17154;DHT22;8692;52.164;7.558;2023-03-11T15:35:00;7.10;92.10
17154;DHT22;8692;52.164;7.558;2023-03-11T15:37:30;7.00;92.00
17154;DHT22;8692;52.164;7.558;2023-03-11T15:40:16;7.00;92.70
17154;DHT22;8692;52.164;7.558;2023-03-11T15:42:49;6.90;92.60
17154;DHT22;8692;52.164;7.558;2023-03-11T15:45:30;6.90;92.90
17154;DHT22;8692;52.164;7.558;2023-03-11T15:47:58;6.80;90.30
17154;DHT22;8692;52.164;7.558;2023-03-11T15:50:29;6.80;92.60
17154;DHT22;8692;52.164;7.558;2023-03-11T15:53:16;6.70;94.40
17154;DHT22;8692;52.164;7.558;2023-03-11T15:55:45;6.70;95.10
17154;DHT22;8692;52.164;7.558;2023-03-11T15:58:16;6.60;92.60
17154;DHT22;8692;52.164;7.558;2023-03-11T16:00:49;6.40;86.90
17154;DHT22;8692;52.164;7.558;2023-03-11T16:03:17;6.30;88.90
17154;DHT22;8692;52.164;7.558;2023-03-11T16:05:46;6.20;88.60
17154;DHT22;8692;52.164;7.558;2023-03-11T16:08:17;6.20;91.00
17154;DHT22;8692;52.164;7.558;2023-03-11T16:10:45;6.10;91.20
17154;DHT22;8692;52.164;7.558;2023-03-11T16:13:17;6.10;91.90
17154;DHT22;8692;52.164;7.558;2023-03-11T16:15:48;6.00;92.00
17154;DHT22;8692;52.164;7.558;2023-03-11T16:18:16;6.00;90.50
17154;DHT22;8692;52.164;7.558;2023-03-11T16:20:46;5.90;91.80
17154;DHT22;8692;52.164;7.558;2023-03-11T16:23:20;5.90;91.50
17154;DHT22;8692;52.164;7.558;2023-03-11T16:25:54;5.80;93.50
17154;DHT22;8692;52.164;7.558;2023-03-11T16:28:28;5.80;92.10
17154;DHT22;8692;52.164;7.558;2023-03-11T16:30:56;5.70;92.70
17154;DHT22;8692;52.164;7.558;2023-03-11T16:33:27;5.60;93.10
17154;DHT22;8692;52.164;7.558;2023-03-11T16:35:55;5.60;94.80
17154;DHT22;8692;52.164;7.558;2023-03-11T16:38:23;5.50;95.20
17154;DHT22;8692;52.164;7.558;2023-03-11T16:40:55;5.50;96.80
17154;DHT22;8692;52.164;7.558;2023-03-11T16:43:23;5.40;94.00
17154;DHT22;8692;52.164;7.558;2023-03-11T16:45:55;5.40;95.50
17154;DHT22;8692;52.164;7.558;2023-03-11T16:48:31;5.30;95.60
17154;DHT22;8692;52.164;7.558;2023-03-11T16:50:59;5.30;96.80
17154;DHT22;8692;52.164;7.558;2023-03-11T16:53:28;5.20;97.70
17154;DHT22;8692;52.164;7.558;2023-03-11T16:55:56;5.20;96.50